Time;durP1;ratioP1;P1;durP2;ratioP2;P2;SDS_P1;SDS_P2;PMS_P1;PMS_P2;Temp;Humidity;BMP_temperature;BMP_pressure;BME280_temperature;BME280_humidity;BME280_pressure;Samples;Min_cycle;Max_cycle;Signal;HPM_P1;HPM_P2
2021/09/08 00:01:52;;;;;;;9.20;8.40;;;19.20;33.10;;;;;;10470001;28;20231;-72
2021/09/08 00:06:56;;;;;;;8.97;8.27;;;19.20;33.30;;;;;;10476390;28;20300;-72
2021/09/08 00:11:59;;;;;;;8.90;8.20;;;19.10;32.90;;;;;;10474367;28;20233;-72
2021/09/08 00:17:04;;;;;;;9.70;8.73;;;19.10;33.10;;;;;;10475449;28;20260;-71
2021/09/08 00:22:07;;;;;;;9.27;8.37;;;19.00;33.30;;;;;;10472493;28;20687;-73
2021/09/08 00:27:10;;;;;;;8.80;8.07;;;18.90;33.10;;;;;;10472851;28;20225;-72
2021/09/08 00:32:15;;;;;;;8.23;7.53;;;18.80;33.10;;;;;;10471371;28;20232;-71
2021/09/08 00:37:18;;;;;;;8.47;7.77;;;18.80;33.40;;;;;;10473913;28;20232;-72
2021/09/08 00:42:21;;;;;;;7.90;7.23;;;18.70;33.20;;;;;;10476010;28;20243;-72
2021/09/08 00:47:26;;;;;;;7.03;6.53;;;18.60;33.10;;;;;;10473859;28;20231;-72
2021/09/08 00:52:29;;;;;;;6.40;5.90;;;18.60;33.60;;;;;;10475458;28;20232;-72
2021/09/08 00:57:33;;;;;;;6.27;5.77;;;18.50;33.20;;;;;;10476533;28;20235;-72
2021/09/08 01:02:41;;;;;;;7.33;6.80;;;18.40;33.30;;;;;;10474043;28;20639;-72
2021/09/08 01:07:46;;;;;;;8.30;7.63;;;18.30;34.00;;;;;;10476705;28;20274;-71
2021/09/08 01:12:49;;;;;;;8.33;7.53;;;18.30;33.40;;;;;;10475241;28;20727;-72
2021/09/08 01:17:53;;;;;;;8.50;7.80;;;18.20;33.40;;;;;;10477069;28;20220;-72
2021/09/08 01:22:58;;;;;;;7.23;6.63;;;18.10;33.70;;;;;;10476824;28;20689;-72
2021/09/08 01:28:01;;;;;;;7.80;7.20;;;18.00;33.80;;;;;;10473917;28;20303;-72
2021/09/08 01:33:08;;;;;;;7.03;6.33;;;18.00;33.60;;;;;;10475379;28;20590;-72
2021/09/08 01:38:12;;;;;;;6.37;5.77;;;17.90;34.20;;;;;;10472562;28;20221;-72
2021/09/08 01:43:16;;;;;;;6.00;5.40;;;17.90;34.00;;;;;;10471804;28;20238;-72
2021/09/08 01:48:19;;;;;;;5.37;4.97;;;17.80;33.70;;;;;;10474471;28;20226;-72
2021/09/08 01:53:24;;;;;;;6.13;5.67;;;17.80;33.80;;;;;;10482752;28;20263;-71
2021/09/08 01:58:27;;;;;;;5.37;4.97;;;17.70;34.00;;;;;;10483691;28;20279;-72
2021/09/08 02:03:31;;;;;;;5.73;5.23;;;17.70;33.80;;;;;;10479774;28;20232;-72
2021/09/08 02:08:36;;;;;;;5.67;5.27;;;17.60;33.70;;;;;;10480265;28;20244;-72
2021/09/08 02:13:39;;;;;;;5.30;4.90;;;17.60;34.10;;;;;;10479532;28;20243;-72
2021/09/08 02:18:43;;;;;;;5.90;5.43;;;17.50;33.70;;;;;;10481003;28;20281;-72
2021/09/08 02:23:48;;;;;;;6.03;5.63;;;17.50;33.90;;;;;;10482967;28;20232;-72
2021/09/08 02:28:51;;;;;;;5.57;5.17;;;17.40;34.20;;;;;;10479237;28;20224;-72
2021/09/08 02:33:55;;;;;;;5.93;5.43;;;17.40;34.20;;;;;;10482787;28;20239;-72
2021/09/08 02:39:01;;;;;;;5.27;4.80;;;17.30;34.10;;;;;;10475328;28;20607;-73
2021/09/08 02:44:04;;;;;;;7.40;6.80;;;17.30;34.10;;;;;;10477163;28;20315;-73
2021/09/08 02:49:08;;;;;;;7.40;6.80;;;17.20;34.00;;;;;;10475651;28;20223;-73
2021/09/08 02:54:12;;;;;;;7.37;6.77;;;17.20;34.00;;;;;;10481031;28;20298;-72
2021/09/08 02:59:15;;;;;;;7.23;6.63;;;17.10;34.00;;;;;;10476083;28;20712;-73
2021/09/08 03:04:19;;;;;;;6.93;6.23;;;17.00;33.90;;;;;;10480436;28;20266;-73
2021/09/08 03:09:23;;;;;;;5.90;5.50;;;16.90;33.80;;;;;;10475617;28;20704;-79
2021/09/08 03:14:26;;;;;;;5.13;4.63;;;16.80;33.70;;;;;;10475433;28;20236;-72
2021/09/08 03:19:30;;;;;;;5.30;4.40;;;16.80;33.70;;;;;;10477458;28;20236;-73
2021/09/08 03:24:34;;;;;;;6.43;5.93;;;16.70;34.40;;;;;;10480319;28;20235;-73
2021/09/08 03:29:38;;;;;;;6.47;5.97;;;16.60;34.30;;;;;;10475293;28;20236;-73
2021/09/08 03:34:41;;;;;;;5.43;5.00;;;16.50;34.00;;;;;;10479081;28;20236;-73
2021/09/08 03:39:46;;;;;;;6.37;5.77;;;16.50;34.00;;;;;;10478464;28;20235;-73
2021/09/08 03:44:49;;;;;;;5.97;5.53;;;16.40;34.60;;;;;;10474646;28;20239;-73
2021/09/08 03:49:52;;;;;;;5.80;5.30;;;16.40;34.40;;;;;;10479239;28;20221;-73
2021/09/08 03:54:56;;;;;;;7.10;6.50;;;16.30;34.50;;;;;;10478877;28;20223;-73
2021/09/08 04:00:00;;;;;;;7.37;6.77;;;16.30;35.00;;;;;;10472938;28;20598;-73
2021/09/08 04:05:03;;;;;;;7.80;7.13;;;16.30;34.80;;;;;;10472146;28;20592;-78
2021/09/08 04:10:09;;;;;;;7.13;6.50;;;16.30;34.90;;;;;;10471313;28;23351;-79
2021/09/08 04:15:13;;;;;;;8.00;7.20;;;16.30;35.20;;;;;;10476736;28;20230;-79
2021/09/08 04:20:17;;;;;;;7.87;7.20;;;16.30;34.80;;;;;;10472296;28;20231;-78
2021/09/08 04:25:21;;;;;;;7.60;6.57;;;16.20;34.70;;;;;;10474136;28;20221;-79
2021/09/08 04:30:25;;;;;;;7.93;7.23;;;16.00;34.80;;;;;;10474822;28;20224;-79
2021/09/08 04:35:29;;;;;;;8.20;7.40;;;16.10;34.80;;;;;;10471482;28;20216;-79
2021/09/08 04:40:34;;;;;;;8.67;7.53;;;16.10;35.00;;;;;;10478602;28;20224;-78
2021/09/08 04:45:38;;;;;;;7.77;7.07;;;16.00;35.20;;;;;;10473422;28;20592;-74
2021/09/08 04:50:41;;;;;;;8.27;7.47;;;15.90;34.80;;;;;;10474624;28;20228;-75
2021/09/08 04:55:46;;;;;;;8.37;7.57;;;15.90;35.00;;;;;;10469988;28;20224;-73
2021/09/08 05:00:50;;;;;;;7.73;7.13;;;15.90;35.20;;;;;;10466667;28;20242;-79
2021/09/08 05:05:53;;;;;;;9.43;8.37;;;15.90;35.10;;;;;;10472209;28;20228;-81
2021/09/08 05:10:59;;;;;;;8.80;8.00;;;15.80;35.20;;;;;;10479809;28;20863;-81
2021/09/08 05:16:11;;;;;;;10.07;9.13;;;15.80;35.50;;;;;;10445403;28;20220;-82
2021/09/08 05:21:16;;;;;;;8.10;7.40;;;15.80;35.40;;;;;;10452030;28;20558;-81
2021/09/08 05:26:22;;;;;;;9.83;8.83;;;15.80;35.50;;;;;;10463304;28;20717;-82
2021/09/08 05:31:26;;;;;;;10.83;8.57;;;15.60;35.70;;;;;;10484721;28;20232;-83
2021/09/08 05:36:29;;;;;;;9.70;8.70;;;15.60;35.60;;;;;;10475226;28;20256;-82
2021/09/08 05:41:37;;;;;;;9.97;8.97;;;15.60;35.80;;;;;;10480792;28;20268;-81
2021/09/08 05:46:41;;;;;;;11.87;10.77;;;15.60;37.00;;;;;;10460207;28;20239;-79
2021/09/08 05:51:44;;;;;;;11.83;10.63;;;15.70;36.50;;;;;;10473489;28;20748;-76
2021/09/08 05:56:49;;;;;;;10.77;9.77;;;15.70;38.00;;;;;;10461528;28;20582;-79
2021/09/08 06:01:52;;;;;;;10.33;9.43;;;15.70;38.10;;;;;;10543903;22;20264;-82
2021/09/08 06:06:58;;;;;;;11.37;10.27;;;15.80;37.40;;;;;;10567385;28;20222;-83
2021/09/08 06:12:02;;;;;;;13.23;11.47;;;15.90;37.70;;;;;;10564741;28;20229;-83
2021/09/08 06:17:06;;;;;;;13.60;12.20;;;16.00;38.50;;;;;;10570690;27;20908;-82
2021/09/08 06:22:10;;;;;;;15.30;13.77;;;16.10;38.50;;;;;;10572533;27;20770;-76
2021/09/08 06:27:15;;;;;;;17.57;15.83;;;16.20;38.70;;;;;;10564236;28;20219;-82
2021/09/08 06:32:21;;;;;;;16.53;14.87;;;16.30;40.20;;;;;;10559823;27;20620;-80
2021/09/08 06:37:28;;;;;;;16.43;14.93;;;16.40;39.70;;;;;;10569379;27;20226;-81
2021/09/08 06:42:33;;;;;;;17.30;15.50;;;16.50;40.10;;;;;;10569237;28;20726;-82
2021/09/08 06:47:54;;;;;;;15.67;14.13;;;16.70;41.20;;;;;;10566677;28;20235;-81
2021/09/08 06:52:57;;;;;;;16.10;14.40;;;16.90;40.60;;;;;;10567623;27;20624;-82
2021/09/08 06:58:02;;;;;;;15.70;14.20;;;17.00;41.10;;;;;;10567074;27;20218;-82
2021/09/08 07:03:06;;;;;;;15.77;14.37;;;17.20;41.90;;;;;;10567729;28;20228;-82
2021/09/08 07:08:11;;;;;;;14.30;12.97;;;17.40;41.10;;;;;;10564569;28;20231;-82
2021/09/08 07:13:16;;;;;;;13.90;12.60;;;17.60;41.50;;;;;;10567316;28;20249;-83
2021/09/08 07:18:20;;;;;;;13.93;12.57;;;17.70;42.10;;;;;;10567085;28;20310;-82
2021/09/08 07:23:25;;;;;;;13.97;12.60;;;18.00;41.50;;;;;;10570012;28;20238;-83
2021/09/08 07:28:30;;;;;;;13.33;12.03;;;18.10;41.60;;;;;;10569869;28;20237;-83
2021/09/08 07:33:34;;;;;;;12.17;10.97;;;18.40;42.50;;;;;;10568698;28;20235;-83
2021/09/08 07:38:41;;;;;;;12.53;11.23;;;18.60;41.60;;;;;;10562634;27;20276;-73
2021/09/08 07:43:47;;;;;;;11.47;10.37;;;18.90;41.70;;;;;;10523364;27;20245;-73
2021/09/08 07:48:50;;;;;;;10.90;9.90;;;19.00;42.00;;;;;;10556064;27;20225;-73
2021/09/08 07:53:54;;;;;;;11.53;10.30;;;19.40;41.30;;;;;;10552330;27;20230;-74
2021/09/08 07:58:58;;;;;;;11.37;10.17;;;19.70;41.40;;;;;;10555307;28;20227;-83
2021/09/08 08:04:02;;;;;;;10.23;9.30;;;19.90;41.70;;;;;;10551880;28;20317;-79
2021/09/08 08:09:06;;;;;;;10.73;9.40;;;20.20;41.20;;;;;;10555782;28;20230;-83
2021/09/08 08:14:13;;;;;;;9.50;8.60;;;20.40;41.10;;;;;;10557587;27;20309;-83
2021/09/08 08:19:17;;;;;;;10.50;9.60;;;20.70;40.40;;;;;;10559071;27;20222;-83
2021/09/08 08:24:20;;;;;;;10.43;8.93;;;21.00;40.40;;;;;;10556369;27;20257;-83
2021/09/08 08:29:28;;;;;;;9.50;8.60;;;21.20;40.00;;;;;;10554908;28;20226;-83
2021/09/08 08:34:32;;;;;;;10.13;9.23;;;21.50;39.40;;;;;;10556806;28;20226;-83
2021/09/08 08:39:38;;;;;;;9.53;8.73;;;21.80;39.30;;;;;;10557523;27;20222;-83
2021/09/08 08:44:43;;;;;;;9.17;8.37;;;22.00;39.30;;;;;;10556578;27;20226;-82
2021/09/08 08:49:48;;;;;;;9.60;8.67;;;22.30;38.50;;;;;;10557547;28;20326;-81
2021/09/08 08:54:51;;;;;;;9.30;8.30;;;22.50;38.70;;;;;;10558106;27;20223;-82
2021/09/08 08:59:56;;;;;;;9.53;8.63;;;22.80;38.80;;;;;;10555884;28;20774;-82
2021/09/08 09:05:02;;;;;;;9.47;8.67;;;23.10;38.10;;;;;;10548012;28;20219;-81
2021/09/08 09:10:08;;;;;;;9.00;8.13;;;23.30;38.10;;;;;;10556440;28;20219;-81
2021/09/08 09:15:16;;;;;;;10.07;8.30;;;23.60;37.50;;;;;;10550914;28;20219;-81
2021/09/08 09:20:22;;;;;;;10.10;9.20;;;23.80;37.00;;;;;;10544690;28;21900;-82
2021/09/08 09:25:27;;;;;;;8.80;7.90;;;24.10;37.10;;;;;;10552581;28;20693;-82
2021/09/08 09:30:34;;;;;;;9.20;8.30;;;24.30;36.60;;;;;;10556535;28;20231;-82
2021/09/08 09:35:58;;;;;;;9.67;8.77;;;24.50;36.60;;;;;;10555113;28;20718;-81
2021/09/08 09:41:02;;;;;;;9.40;8.30;;;24.70;36.20;;;;;;10555891;28;20825;-81
2021/09/08 09:46:24;;;;;;;9.20;8.40;;;24.90;36.00;;;;;;10559861;28;20925;-82
2021/09/08 09:51:54;;;;;;;9.03;8.23;;;25.20;35.10;;;;;;10554849;28;20231;-82
2021/09/08 09:56:58;;;;;;;8.97;8.07;;;25.20;35.00;;;;;;10550527;28;20223;-82
2021/09/08 10:02:04;;;;;;;8.97;8.17;;;25.50;34.80;;;;;;10556424;28;20233;-82
2021/09/08 10:07:09;;;;;;;9.30;8.40;;;25.70;34.10;;;;;;10553651;28;20246;-82
2021/09/08 10:12:14;;;;;;;8.23;7.47;;;25.80;33.80;;;;;;10562024;28;20297;-82
2021/09/08 10:17:20;;;;;;;8.33;7.53;;;26.00;33.80;;;;;;10557988;27;20309;-80
2021/09/08 10:22:24;;;;;;;8.53;7.83;;;26.20;33.20;;;;;;10561258;28;20766;-80
2021/09/08 10:27:30;;;;;;;9.10;8.30;;;26.30;33.40;;;;;;10564137;27;20278;-80
2021/09/08 10:32:36;;;;;;;8.63;7.83;;;26.50;32.70;;;;;;10563528;28;20309;-80
2021/09/08 10:37:43;;;;;;;7.60;7.00;;;26.60;32.00;;;;;;10559387;27;20253;-79
2021/09/08 10:42:51;;;;;;;7.40;6.80;;;26.70;32.40;;;;;;10557625;27;20223;-75
2021/09/08 10:47:58;;;;;;;8.73;8.03;;;26.80;31.80;;;;;;10552821;27;20334;-76
2021/09/08 10:53:04;;;;;;;7.80;7.10;;;26.90;30.80;;;;;;10556971;27;20238;-75
2021/09/08 10:58:07;;;;;;;7.93;7.23;;;27.00;31.50;;;;;;10560815;27;20273;-74
2021/09/08 11:03:27;;;;;;;7.70;7.00;;;27.10;31.30;;;;;;10555606;27;20222;-74
2021/09/08 11:08:33;;;;;;;7.93;7.23;;;27.20;30.40;;;;;;10565983;27;20230;-74
2021/09/08 11:13:36;;;;;;;8.57;7.73;;;27.30;30.70;;;;;;10541140;27;20223;-73
2021/09/08 11:18:45;;;;;;;8.30;7.50;;;27.30;30.50;;;;;;10564816;27;20222;-73
2021/09/08 11:23:49;;;;;;;7.47;6.87;;;27.40;29.90;;;;;;10564819;27;20234;-77
2021/09/08 11:28:58;;;;;;;7.80;7.17;;;27.40;30.00;;;;;;10560940;28;20857;-77
2021/09/08 11:34:04;;;;;;;7.40;6.80;;;27.50;29.70;;;;;;10567171;28;20221;-76
2021/09/08 11:39:14;;;;;;;7.30;6.60;;;27.50;29.80;;;;;;10562282;28;20818;-77
2021/09/08 11:44:17;;;;;;;7.70;6.90;;;27.60;29.20;;;;;;10566697;27;20761;-76
2021/09/08 11:49:22;;;;;;;7.60;7.00;;;27.60;30.00;;;;;;10560921;28;20215;-76
2021/09/08 11:54:26;;;;;;;7.37;6.77;;;27.60;29.00;;;;;;10559925;27;20246;-80
2021/09/08 11:59:34;;;;;;;7.73;6.40;;;27.60;29.30;;;;;;10552361;27;20231;-80
2021/09/08 12:04:39;;;;;;;7.07;6.37;;;27.60;29.20;;;;;;10563818;28;20404;-81
2021/09/08 12:09:43;;;;;;;8.20;7.20;;;27.70;29.00;;;;;;10546056;27;20618;-81
2021/09/08 12:14:54;;;;;;;6.70;6.10;;;27.70;29.20;;;;;;10566063;27;20226;-81
2021/09/08 12:20:03;;;;;;;7.17;6.57;;;27.70;29.00;;;;;;10520381;28;20699;-82
2021/09/08 12:25:15;;;;;;;7.23;6.63;;;27.80;28.30;;;;;;10560229;28;20580;-81
2021/09/08 12:30:29;;;;;;;7.37;6.67;;;27.90;28.50;;;;;;10565399;28;20229;-81
2021/09/08 12:35:36;;;;;;;7.70;6.97;;;27.80;27.40;;;;;;10564219;28;20797;-81
2021/09/08 12:41:03;;;;;;;6.97;6.37;;;27.90;28.20;;;;;;10561615;27;20230;-81
2021/09/08 12:46:06;;;;;;;7.30;6.70;;;27.90;28.70;;;;;;10565350;28;20229;-81
2021/09/08 12:51:11;;;;;;;6.87;6.37;;;27.90;28.50;;;;;;10563294;28;20257;-81
2021/09/08 12:56:16;;;;;;;7.07;6.57;;;27.90;28.20;;;;;;10562853;28;20817;-81
2021/09/08 13:06:56;;;;;;;6.43;5.93;;;28.00;28.50;;;;;;10559567;27;20268;-81
2021/09/08 13:12:03;;;;;;;6.70;6.20;;;28.00;27.50;;;;;;10555332;27;20309;-81
2021/09/08 13:17:06;;;;;;;6.67;5.90;;;28.00;27.80;;;;;;10549995;28;20222;-80
2021/09/08 13:22:12;;;;;;;6.43;5.83;;;28.10;27.70;;;;;;10561942;28;20595;-77
2021/09/08 13:27:15;;;;;;;6.03;5.50;;;28.10;27.40;;;;;;10564346;28;20236;-77
2021/09/08 13:32:19;;;;;;;6.27;5.77;;;28.20;27.60;;;;;;10562143;28;20439;-77
2021/09/08 13:37:23;;;;;;;6.37;5.87;;;28.20;27.00;;;;;;10564749;28;20231;-77
2021/09/08 13:42:27;;;;;;;5.80;5.30;;;28.20;26.90;;;;;;10560291;28;20226;-77
2021/09/08 13:47:30;;;;;;;5.30;4.90;;;28.20;27.10;;;;;;10571917;27;20318;-77
2021/09/08 13:52:35;;;;;;;7.03;5.70;;;28.20;26.90;;;;;;10572314;27;20274;-77
2021/09/08 13:57:39;;;;;;;6.20;5.57;;;28.20;26.40;;;;;;10571333;27;20223;-77
2021/09/08 14:02:43;;;;;;;7.20;6.50;;;28.20;27.10;;;;;;10568368;28;20235;-78
2021/09/08 14:07:49;;;;;;;6.70;6.20;;;28.30;26.80;;;;;;10568920;28;20234;-77
2021/09/08 14:12:52;;;;;;;6.00;5.50;;;28.30;26.20;;;;;;10567388;27;20822;-76
2021/09/08 14:17:55;;;;;;;6.27;5.67;;;28.40;26.60;;;;;;10562496;28;20246;-77
2021/09/08 14:23:00;;;;;;;6.20;5.70;;;28.40;26.60;;;;;;10568101;27;20223;-77
2021/09/08 14:28:04;;;;;;;5.83;5.33;;;28.50;25.90;;;;;;10568453;27;20516;-76
2021/09/08 14:33:07;;;;;;;5.63;5.13;;;28.50;26.20;;;;;;10571120;27;20702;-76
2021/09/08 14:38:13;;;;;;;6.17;5.03;;;28.50;26.10;;;;;;10569680;27;20223;-77
2021/09/08 14:43:16;;;;;;;5.67;5.20;;;28.50;25.50;;;;;;10569930;27;20591;-76
2021/09/08 14:48:22;;;;;;;5.60;5.10;;;28.50;25.80;;;;;;10568250;27;20253;-76
2021/09/08 14:53:27;;;;;;;5.90;4.83;;;28.60;26.00;;;;;;10568172;28;20231;-77
2021/09/08 14:58:31;;;;;;;5.30;4.80;;;28.60;25.20;;;;;;10572844;27;20316;-77
2021/09/08 15:03:35;;;;;;;5.40;5.00;;;28.60;25.70;;;;;;10568818;27;20245;-77
2021/09/08 15:08:40;;;;;;;6.20;5.57;;;28.60;25.70;;;;;;10569216;28;20237;-77
2021/09/08 15:13:43;;;;;;;5.77;5.27;;;28.60;25.50;;;;;;10566239;27;20706;-76
2021/09/08 15:18:46;;;;;;;6.10;5.60;;;28.70;25.80;;;;;;10565630;28;20301;-76
2021/09/08 15:23:51;;;;;;;5.67;5.27;;;28.70;25.60;;;;;;10568124;27;20237;-77
2021/09/08 15:28:58;;;;;;;6.40;5.80;;;28.70;25.00;;;;;;10566908;28;20219;-77
2021/09/08 15:34:02;;;;;;;5.60;5.20;;;28.70;25.40;;;;;;10566671;28;20226;-75
2021/09/08 15:39:06;;;;;;;6.00;5.53;;;28.70;25.40;;;;;;10567223;27;20222;-71
2021/09/08 15:44:09;;;;;;;6.10;5.60;;;28.70;24.80;;;;;;10564969;27;20238;-73
2021/09/08 15:49:14;;;;;;;6.13;5.53;;;28.60;25.10;;;;;;10560323;27;20829;-72
2021/09/08 15:54:19;;;;;;;5.70;5.20;;;28.60;25.10;;;;;;10558277;27;20223;-73
2021/09/08 15:59:22;;;;;;;5.60;5.20;;;28.60;24.70;;;;;;10558225;27;20226;-73
2021/09/08 16:04:33;;;;;;;6.40;5.80;;;28.60;25.10;;;;;;10563868;27;20231;-84
2021/09/08 16:09:38;;;;;;;6.23;5.60;;;28.60;25.10;;;;;;10562196;28;20310;-83
2021/09/08 16:14:42;;;;;;;6.77;5.50;;;28.60;24.70;;;;;;10563687;27;20241;-80
2021/09/08 16:19:46;;;;;;;5.93;5.43;;;28.60;25.10;;;;;;10564175;27;20647;-80
2021/09/08 16:24:52;;;;;;;6.20;5.70;;;28.60;25.00;;;;;;10560775;28;20557;-80
2021/09/08 16:29:56;;;;;;;5.53;5.03;;;28.60;24.70;;;;;;10558744;28;20233;-80
2021/09/08 16:35:00;;;;;;;5.80;5.30;;;28.60;25.00;;;;;;10563104;27;20230;-83
2021/09/08 16:40:20;;;;;;;6.10;5.60;;;28.70;25.10;;;;;;10562962;27;20956;-83
2021/09/08 16:45:23;;;;;;;5.87;5.37;;;28.60;24.70;;;;;;10564463;27;20610;-83
2021/09/08 16:50:26;;;;;;;6.17;5.67;;;28.60;24.90;;;;;;10561761;28;20235;-80
2021/09/08 16:55:32;;;;;;;5.90;5.43;;;28.60;25.00;;;;;;10565963;28;21004;-80
2021/09/08 17:00:35;;;;;;;6.23;5.63;;;28.60;24.90;;;;;;10562847;28;20349;-73
2021/09/08 17:05:39;;;;;;;6.30;5.80;;;28.50;25.20;;;;;;10561092;28;20235;-82
2021/09/08 17:10:44;;;;;;;5.90;5.50;;;28.50;25.30;;;;;;10561857;28;20222;-74
2021/09/08 17:15:48;;;;;;;6.27;5.70;;;28.40;25.30;;;;;;10560302;28;20226;-73
2021/09/08 17:42:39;;;;;;;5.40;5.00;;;28.20;25.20;;;;;;10420108;27;20569;-74
2021/09/08 17:53:36;;;;;;;6.50;5.67;;;27.50;26.00;;;;;;10344797;28;20236;-74
2021/09/08 17:58:59;;;;;;;6.23;5.73;;;27.20;26.10;;;;;;10363213;28;20229;-83
2021/09/08 18:10:27;;;;;;;6.70;6.10;;;27.00;26.70;;;;;;10343661;28;20224;-85
2021/09/08 18:15:53;;;;;;;6.33;5.73;;;26.80;27.00;;;;;;10334936;28;20231;-85
2021/09/08 18:21:00;;;;;;;7.07;6.40;;;26.60;27.20;;;;;;10351461;28;20230;-84
2021/09/08 18:26:28;;;;;;;6.40;5.50;;;26.50;27.30;;;;;;10365998;28;20236;-85
2021/09/08 18:32:06;;;;;;;6.63;6.03;;;26.40;27.30;;;;;;10370012;28;20291;-85
2021/09/08 18:43:19;;;;;;;8.50;6.40;;;26.00;27.70;;;;;;10332416;28;20231;-85
2021/09/08 18:48:39;;;;;;;7.77;5.90;;;25.90;27.80;;;;;;10311273;28;20231;-85
2021/09/08 18:53:46;;;;;;;5.80;5.30;;;25.70;28.20;;;;;;10292547;28;20230;-85
2021/09/08 19:05:11;;;;;;;;;;;;;;;;;;;;;
2021/09/08 19:10:15;;;;;;;6.30;5.67;;;25.30;28.80;;;;;;10323094;28;20699;-86
2021/09/08 19:15:20;;;;;;;6.80;6.10;;;25.20;28.50;;;;;;10323244;28;20233;-85
2021/09/08 19:20:28;;;;;;;6.50;5.53;;;25.00;28.70;;;;;;10315745;28;20334;-85
2021/09/08 19:25:44;;;;;;;8.03;7.03;;;24.90;28.60;;;;;;10300379;28;20229;-85
2021/09/08 19:30:48;;;;;;;6.90;6.30;;;24.80;28.60;;;;;;10334092;28;20230;-80
2021/09/08 19:35:58;;;;;;;8.47;7.67;;;24.60;28.70;;;;;;10322816;28;20251;-83
2021/09/08 19:41:13;;;;;;;7.40;6.80;;;24.60;29.20;;;;;;10318130;28;20230;-83
2021/09/08 19:46:16;;;;;;;6.57;6.07;;;24.50;28.80;;;;;;10321558;28;20233;-80
2021/09/08 19:51:24;;;;;;;6.67;6.17;;;24.40;28.60;;;;;;10315803;28;20246;-80
2021/09/08 19:56:28;;;;;;;7.33;6.73;;;24.30;28.90;;;;;;10351942;28;20823;-83
2021/09/08 20:01:33;;;;;;;7.10;6.50;;;24.20;28.80;;;;;;10319475;28;20257;-81
2021/09/08 20:06:41;;;;;;;7.13;6.53;;;24.00;28.90;;;;;;10321857;28;20238;-81
2021/09/08 20:11:45;;;;;;;7.50;6.90;;;23.80;29.20;;;;;;10315681;28;20246;-81
2021/09/08 20:16:48;;;;;;;8.67;7.77;;;23.70;29.20;;;;;;10321746;28;20668;-81
2021/09/08 20:21:53;;;;;;;9.40;8.43;;;23.60;29.30;;;;;;10311375;28;20337;-81
2021/09/08 20:26:57;;;;;;;8.80;8.00;;;23.60;29.70;;;;;;10318600;28;20223;-80
2021/09/08 20:32:01;;;;;;;9.07;8.27;;;23.50;29.60;;;;;;10332329;28;20262;-81
2021/09/08 20:37:06;;;;;;;8.43;7.53;;;23.40;29.60;;;;;;10315886;28;20233;-80
2021/09/08 20:42:10;;;;;;;7.50;6.80;;;23.30;29.90;;;;;;10316876;28;20224;-84
2021/09/08 20:47:13;;;;;;;8.17;7.37;;;23.20;29.70;;;;;;10321035;28;20231;-82
2021/09/08 20:52:19;;;;;;;8.20;7.40;;;23.10;29.70;;;;;;10318854;28;20696;-81
2021/09/08 20:57:23;;;;;;;7.87;7.07;;;22.90;30.00;;;;;;10319380;28;20234;-81
2021/09/08 21:02:26;;;;;;;7.43;6.83;;;22.80;29.80;;;;;;10316460;28;20229;-81
2021/09/08 21:07:32;;;;;;;8.00;7.30;;;22.70;29.90;;;;;;10322415;28;20223;-81
2021/09/08 21:12:35;;;;;;;6.83;6.33;;;22.70;30.20;;;;;;10327523;28;20357;-81
2021/09/08 21:17:41;;;;;;;7.40;6.80;;;22.60;30.00;;;;;;10328402;28;20233;-81
2021/09/08 21:22:46;;;;;;;8.23;7.53;;;22.50;30.00;;;;;;10319159;28;20266;-81
2021/09/08 21:27:51;;;;;;;8.90;8.10;;;22.40;30.40;;;;;;10320383;28;20712;-81
2021/09/08 21:32:54;;;;;;;7.57;6.97;;;22.30;30.00;;;;;;10324252;28;20671;-81
2021/09/08 21:37:59;;;;;;;8.60;7.90;;;22.20;30.00;;;;;;10323877;28;20587;-80
2021/09/08 21:43:04;;;;;;;8.20;7.53;;;22.10;30.50;;;;;;10318693;28;20355;-81
2021/09/08 21:48:07;;;;;;;7.07;6.57;;;21.90;30.20;;;;;;10324749;28;20256;-80
2021/09/08 21:53:14;;;;;;;8.40;7.60;;;21.80;30.30;;;;;;10332829;28;20266;-81
2021/09/08 21:58:18;;;;;;;7.60;7.00;;;21.70;30.80;;;;;;10331467;28;20231;-82
2021/09/08 22:03:22;;;;;;;7.03;6.43;;;21.60;30.50;;;;;;10318173;28;21849;-81
2021/09/08 22:08:30;;;;;;;7.73;7.13;;;21.60;30.60;;;;;;10318035;28;20760;-81
2021/09/08 22:13:33;;;;;;;7.10;6.40;;;21.50;31.60;;;;;;10315121;28;20231;-81
2021/09/08 22:18:36;;;;;;;7.10;6.50;;;21.40;30.80;;;;;;10329329;28;20270;-81
2021/09/08 22:23:41;;;;;;;6.30;5.80;;;21.20;30.90;;;;;;10327496;28;20310;-81
2021/09/08 22:28:46;;;;;;;6.70;6.10;;;21.20;31.40;;;;;;10331850;28;20241;-81
2021/09/08 22:33:49;;;;;;;6.63;6.13;;;21.10;31.20;;;;;;10330015;28;20245;-81
2021/09/08 22:38:54;;;;;;;6.87;6.30;;;21.00;31.30;;;;;;10327282;28;20234;-81
2021/09/08 22:43:58;;;;;;;7.20;6.60;;;20.90;31.60;;;;;;10328762;28;20233;-81
2021/09/08 22:49:03;;;;;;;5.80;5.37;;;20.80;31.30;;;;;;10325417;28;21008;-81
2021/09/08 22:54:31;;;;;;;6.90;6.30;;;20.80;31.30;;;;;;10307406;28;20324;-81
2021/09/08 22:59:35;;;;;;;7.50;6.90;;;20.70;31.70;;;;;;10333002;28;20225;-81
2021/09/08 23:04:40;;;;;;;6.83;6.30;;;20.70;31.70;;;;;;10316196;28;20318;-81
2021/09/08 23:09:58;;;;;;;6.57;6.07;;;20.70;31.70;;;;;;10323918;28;20241;-81
2021/09/08 23:15:06;;;;;;;6.17;5.77;;;20.60;31.80;;;;;;10321619;28;20227;-81
2021/09/08 23:20:14;;;;;;;6.87;6.30;;;20.50;31.60;;;;;;10278049;28;20228;-81
2021/09/08 23:25:20;;;;;;;6.70;6.10;;;20.50;31.60;;;;;;10258748;28;20317;-80
2021/09/08 23:30:27;;;;;;;6.60;6.10;;;20.40;31.80;;;;;;10248810;28;20232;-81
2021/09/08 23:35:32;;;;;;;6.70;6.10;;;20.30;31.60;;;;;;10301277;28;20809;-80
2021/09/08 23:40:37;;;;;;;8.90;8.00;;;20.20;32.00;;;;;;10332347;28;20302;-81
2021/09/08 23:45:40;;;;;;;7.63;7.03;;;20.10;32.10;;;;;;10320125;28;20305;-81
2021/09/08 23:50:44;;;;;;;7.20;6.57;;;20.00;32.70;;;;;;10333667;28;20223;-81
2021/09/08 23:55:54;;;;;;;8.17;7.47;;;20.00;32.20;;;;;;10323206;28;20310;-80
